Time;durP1;ratioP1;P1;durP2;ratioP2;P2;SDS_P1;SDS_P2;PMS_P1;PMS_P2;Temp;Humidity;BMP_temperature;BMP_pressure;BME280_temperature;BME280_humidity;BME280_pressure;Samples;Min_cycle;Max_cycle;Signal;HPM_P1;HPM_P2
2021/07/14 00:01:34;;;;;;;7.97;2.00;;;;;;;13.70;100.00;98298.41;5035126;28;20033;-70
2021/07/14 00:03:59;;;;;;;3.47;1.85;;;;;;;13.69;100.00;98269.53;5033888;28;20105;-70
2021/07/14 00:06:24;;;;;;;10.25;2.42;;;;;;;13.87;100.00;98284.91;5033035;28;20540;-70
2021/07/14 00:08:50;;;;;;;6.43;2.80;;;;;;;14.04;100.00;98279.56;5034399;28;20115;-70
2021/07/14 00:11:15;;;;;;;6.65;1.98;;;;;;;13.94;100.00;98277.47;5032836;28;20029;-70
2021/07/14 00:22:10;;;;;;;2.90;2.00;;;;;;;13.82;100.00;98233.94;5031938;28;20060;-70
2021/07/14 00:24:36;;;;;;;8.38;2.17;;;;;;;13.81;100.00;98232.31;5033017;28;20036;-70
2021/07/14 00:27:05;;;;;;;6.45;2.28;;;;;;;13.82;100.00;98238.56;5031546;28;20026;-70
2021/07/14 00:29:30;;;;;;;4.65;2.30;;;;;;;13.86;100.00;98242.47;5034072;28;20025;-70
2021/07/14 00:31:56;;;;;;;9.98;2.67;;;;;;;13.81;100.00;98245.91;5034721;28;20035;-70
2021/07/14 00:34:21;;;;;;;8.65;2.30;;;;;;;13.86;100.00;98250.63;5033921;28;20105;-70
2021/07/14 00:36:46;;;;;;;8.13;2.08;;;;;;;13.84;100.00;98250.03;5032915;28;20076;-70
2021/07/14 00:39:12;;;;;;;5.75;1.98;;;;;;;13.77;100.00;98250.16;5033716;28;20033;-70
2021/07/14 00:41:37;;;;;;;7.45;2.58;;;;;;;13.76;100.00;98253.13;5034440;28;20037;-70
2021/07/14 00:44:03;;;;;;;8.57;2.20;;;;;;;13.93;100.00;98264.09;5034100;28;20021;-70
2021/07/14 00:46:28;;;;;;;10.82;2.35;;;;;;;13.97;100.00;98262.56;5033068;28;20033;-70
2021/07/14 00:48:58;;;;;;;5.65;2.20;;;;;;;14.03;100.00;98258.88;5032002;28;20041;-70
2021/07/14 00:51:23;;;;;;;6.63;2.03;;;;;;;13.91;100.00;98247.19;5021940;28;20105;-70
2021/07/14 00:53:50;;;;;;;3.85;2.05;;;;;;;13.82;100.00;98241.28;5031098;28;20490;-70
2021/07/14 00:56:15;;;;;;;6.70;1.60;;;;;;;13.72;100.00;98238.34;5022903;28;20025;-70
2021/07/14 00:58:41;;;;;;;10.65;2.20;;;;;;;13.57;100.00;98225.22;5032336;28;20452;-70
2021/07/14 01:01:06;;;;;;;9.02;2.40;;;;;;;13.47;100.00;98219.56;5032615;28;20045;-70
2021/07/14 01:03:38;;;;;;;8.52;1.73;;;;;;;13.47;100.00;98236.69;5033325;28;20033;-70
2021/07/14 01:06:05;;;;;;;7.70;2.05;;;;;;;13.44;100.00;98229.03;5033676;28;20030;-70
2021/07/14 01:08:41;;;;;;;5.25;2.47;;;;;;;13.40;100.00;98224.28;5033672;28;20021;-70
2021/07/14 01:11:12;;;;;;;15.20;2.50;;;;;;;13.30;100.00;98206.66;5032207;28;20030;-70
2021/07/14 01:13:49;;;;;;;11.88;2.20;;;;;;;13.30;100.00;98211.28;5032039;28;20057;-70
2021/07/14 01:16:17;;;;;;;6.20;2.83;;;;;;;13.22;100.00;98212.41;5033797;28;20025;-70
2021/07/14 01:18:50;;;;;;;5.88;2.40;;;;;;;13.24;100.00;98247.50;5034045;28;20029;-70
2021/07/14 01:21:28;;;;;;;9.82;2.78;;;;;;;13.31;100.00;98257.25;5033987;28;20017;-70
2021/07/14 01:24:12;;;;;;;13.00;2.90;;;;;;;13.42;100.00;98260.22;5026916;28;20092;-70
2021/07/14 01:26:40;;;;;;;8.38;2.60;;;;;;;13.37;100.00;98278.03;5032289;28;20056;-70
2021/07/14 01:29:08;;;;;;;5.63;2.30;;;;;;;13.30;100.00;98293.59;5014588;28;20034;-70
2021/07/14 01:31:37;;;;;;;8.77;2.20;;;;;;;13.29;100.00;98313.69;5014180;28;20025;-69
2021/07/14 01:34:06;;;;;;;7.97;2.53;;;;;;;13.17;100.00;98326.38;5017136;28;20390;-69
2021/07/14 01:36:34;;;;;;;12.32;2.25;;;;;;;13.13;100.00;98317.88;5033301;28;20029;-70
2021/07/14 01:39:01;;;;;;;6.27;2.63;;;;;;;13.26;100.00;98330.47;5031687;28;20379;-70
2021/07/14 01:41:32;;;;;;;7.57;2.40;;;;;;;13.33;100.00;98323.03;5033149;28;20116;-70
2021/07/14 01:43:59;;;;;;;8.50;2.38;;;;;;;13.23;100.00;98301.03;5031497;28;20025;-70
2021/07/14 01:46:28;;;;;;;7.57;2.90;;;;;;;13.21;100.00;98297.69;5032743;28;20045;-70
2021/07/14 01:48:55;;;;;;;7.95;2.75;;;;;;;13.21;100.00;98286.84;5037635;28;20029;-70
2021/07/14 01:51:21;;;;;;;5.88;2.85;;;;;;;13.13;100.00;98276.31;5032254;28;20463;-70
2021/07/14 01:53:47;;;;;;;6.57;2.72;;;;;;;13.18;100.00;98302.75;5036346;28;20075;-70
2021/07/14 01:56:13;;;;;;;12.20;2.70;;;;;;;13.25;100.00;98312.47;5045451;28;20067;-69
2021/07/14 01:58:47;;;;;;;5.78;2.95;;;;;;;13.16;100.00;98297.56;5047730;28;20029;-70
2021/07/14 02:01:17;;;;;;;17.42;2.90;;;;;;;13.22;100.00;98315.66;5048975;28;20059;-69
2021/07/14 02:06:21;;;;;;;7.57;2.28;;;;;;;13.07;100.00;98317.97;5048218;28;20032;-71
2021/07/14 02:08:46;;;;;;;6.82;2.50;;;;;;;13.04;100.00;98318.44;5046968;28;20022;-70
2021/07/14 02:11:12;;;;;;;7.78;2.60;;;;;;;12.95;100.00;98298.94;5049631;28;20077;-71
2021/07/14 02:13:38;;;;;;;13.82;2.80;;;;;;;13.03;100.00;98319.50;5051295;28;20072;-71
2021/07/14 02:16:05;;;;;;;13.38;3.42;;;;;;;12.96;100.00;98311.44;5052304;28;20104;-71
2021/07/14 02:18:39;;;;;;;10.65;3.13;;;;;;;13.04;100.00;98318.44;5037237;28;20425;-72
2021/07/14 02:21:04;;;;;;;8.68;2.90;;;;;;;13.03;100.00;98306.75;5033215;28;20025;-71
2021/07/14 02:23:29;;;;;;;7.03;3.20;;;;;;;12.90;100.00;98277.06;5061820;23;20469;-74
2021/07/14 02:25:55;;;;;;;8.75;2.60;;;;;;;12.97;100.00;98287.81;5045611;28;20029;-74
2021/07/14 02:28:20;;;;;;;6.07;2.38;;;;;;;12.93;100.00;98276.59;5034881;28;20494;-73
2021/07/14 02:30:46;;;;;;;8.82;2.47;;;;;;;12.90;100.00;98285.22;5030387;28;20530;-74
2021/07/14 02:33:12;;;;;;;6.18;2.53;;;;;;;12.78;100.00;98276.19;5018537;28;20827;-74
2021/07/14 02:35:41;;;;;;;9.18;3.17;;;;;;;12.81;100.00;98286.59;5051596;28;20021;-74
2021/07/14 02:38:12;;;;;;;6.18;3.13;;;;;;;12.76;100.00;98286.44;5029552;28;20398;-73
2021/07/14 02:40:43;;;;;;;9.68;2.85;;;;;;;12.66;100.00;98273.44;5033814;28;20554;-74
2021/07/14 02:43:10;;;;;;;6.18;2.33;;;;;;;12.47;100.00;98254.50;5051869;28;20070;-74
2021/07/14 02:45:42;;;;;;;11.30;2.80;;;;;;;12.57;100.00;98270.19;5051934;28;20020;-74
2021/07/14 02:48:08;;;;;;;16.10;2.83;;;;;;;12.49;100.00;98263.22;5051133;28;20478;-74
2021/07/14 02:50:34;;;;;;;7.43;2.80;;;;;;;12.52;100.00;98261.91;5033336;28;20029;-74
2021/07/14 02:53:24;;;;;;;8.18;2.88;;;;;;;12.56;100.00;98279.41;5034116;28;20031;-73
2021/07/14 02:55:58;;;;;;;8.88;2.80;;;;;;;12.60;100.00;98277.06;5032995;28;20032;-73
2021/07/14 02:58:26;;;;;;;17.15;3.42;;;;;;;12.56;100.00;98265.03;5051851;28;20426;-74
2021/07/14 03:00:53;;;;;;;10.07;2.60;;;;;;;12.50;100.00;98261.34;5051457;28;20025;-73
2021/07/14 03:03:22;;;;;;;8.27;2.60;;;;;;;12.62;100.00;98264.91;5033047;28;20037;-73
2021/07/14 03:05:54;;;;;;;6.82;2.80;;;;;;;12.59;100.00;98262.66;5030731;28;20021;-73
2021/07/14 03:08:22;;;;;;;8.48;3.42;;;;;;;12.83;100.00;98281.75;5051361;28;20385;-73
2021/07/14 03:10:48;;;;;;;6.33;3.00;;;;;;;12.81;100.00;98273.00;5033794;28;20029;-74
2021/07/14 03:13:14;;;;;;;9.68;2.92;;;;;;;12.86;100.00;98268.56;5051285;28;20086;-73
2021/07/14 03:15:40;;;;;;;11.35;2.83;;;;;;;12.82;100.00;98267.38;5033396;28;20025;-74
2021/07/14 03:18:08;;;;;;;5.72;2.63;;;;;;;12.93;100.00;98296.44;5032181;28;20032;-74
2021/07/14 03:20:35;;;;;;;7.63;2.78;;;;;;;12.78;100.00;98287.06;5031952;28;20021;-74
2021/07/14 03:23:01;;;;;;;9.80;2.70;;;;;;;12.72;100.00;98289.63;5049887;28;20029;-73
2021/07/14 03:25:27;;;;;;;8.95;3.30;;;;;;;12.44;100.00;98254.94;5052110;28;20039;-74
2021/07/14 03:27:53;;;;;;;10.27;2.78;;;;;;;12.45;100.00;98261.19;5055144;28;20032;-74
2021/07/14 03:30:23;;;;;;;10.30;2.35;;;;;;;12.49;100.00;98267.81;5036860;28;20040;-73
2021/07/14 03:32:49;;;;;;;9.05;2.92;;;;;;;12.57;100.00;98283.78;5055354;28;20040;-73
2021/07/14 03:35:16;;;;;;;8.25;2.75;;;;;;;12.55;100.00;98287.78;5054913;28;20567;-73
2021/07/14 03:37:44;;;;;;;7.40;3.03;;;;;;;12.42;100.00;98273.34;5054806;28;20040;-73
2021/07/14 03:40:11;;;;;;;9.55;2.85;;;;;;;12.41;100.00;98285.22;5055024;28;20024;-73
2021/07/14 03:42:38;;;;;;;8.05;2.47;;;;;;;12.38;100.00;98288.41;5054451;28;20044;-72
2021/07/14 03:45:05;;;;;;;7.95;3.15;;;;;;;12.40;100.00;98280.06;5055437;28;20033;-73
2021/07/14 03:47:31;;;;;;;9.70;3.70;;;;;;;12.53;100.00;98300.75;5054761;28;20028;-73
2021/07/14 03:49:57;;;;;;;6.35;3.03;;;;;;;12.44;100.00;98276.66;5055005;28;20045;-72
2021/07/14 03:52:23;;;;;;;7.53;3.20;;;;;;;12.67;100.00;98315.81;5051996;28;20041;-72
2021/07/14 03:54:49;;;;;;;6.38;3.15;;;;;;;12.84;100.00;98308.69;5035235;28;20096;-72
2021/07/14 03:57:16;;;;;;;4.55;2.63;;;;;;;12.82;100.00;98315.41;5047417;28;20162;-70
2021/07/14 03:59:41;;;;;;;8.02;3.78;;;;;;;12.72;100.00;98295.06;5031197;28;20032;-71
2021/07/14 04:02:11;;;;;;;5.43;3.20;;;;;;;12.83;100.00;98307.00;5031189;28;20390;-71
2021/07/14 04:04:37;;;;;;;6.57;3.20;;;;;;;12.83;100.00;98292.63;5048457;28;20155;-69
2021/07/14 04:07:09;;;;;;;5.05;2.67;;;;;;;12.87;100.00;98308.22;5051837;28;20115;-70
2021/07/14 04:09:35;;;;;;;11.70;2.83;;;;;;;12.87;100.00;98301.97;5052848;28;20495;-71
2021/07/14 04:12:03;;;;;;;8.05;2.88;;;;;;;13.00;100.00;98317.25;5054503;28;20040;-71
2021/07/14 04:14:29;;;;;;;4.72;2.60;;;;;;;13.02;100.00;98315.09;5050403;28;20041;-71
2021/07/14 04:16:56;;;;;;;5.28;2.50;;;;;;;12.97;100.00;98306.81;5030231;28;20060;-72
2021/07/14 04:19:22;;;;;;;5.47;2.70;;;;;;;12.85;100.00;98283.19;5047717;28;20025;-73
2021/07/14 04:21:48;;;;;;;9.98;3.05;;;;;;;13.01;100.00;98291.75;5054670;28;20020;-73
2021/07/14 04:24:14;;;;;;;10.30;3.03;;;;;;;13.08;100.00;98306.06;5035463;28;20024;-72
2021/07/14 04:26:39;;;;;;;5.35;2.83;;;;;;;13.02;100.00;98283.38;5053674;28;20029;-75
2021/07/14 04:29:05;;;;;;;12.88;2.90;;;;;;;13.16;100.00;98289.44;5036846;28;20108;-71
2021/07/14 04:31:35;;;;;;;9.13;3.13;;;;;;;13.27;100.00;98288.63;5035916;28;20478;-70
2021/07/14 04:34:01;;;;;;;10.45;2.65;;;;;;;13.20;100.00;98271.59;5050769;28;20082;-72
2021/07/14 04:36:27;;;;;;;9.30;3.13;;;;;;;13.42;100.00;98303.69;5043962;28;20104;-71
2021/07/14 04:38:53;;;;;;;11.88;3.13;;;;;;;13.40;100.00;98297.66;5053264;28;20100;-71
2021/07/14 04:41:18;;;;;;;10.32;2.97;;;;;;;13.28;100.00;98298.47;5054134;28;20103;-72
2021/07/14 04:43:43;;;;;;;5.00;2.42;;;;;;;13.33;100.00;98295.03;5034918;28;20090;-71
2021/07/14 04:46:09;;;;;;;5.13;2.63;;;;;;;13.26;100.00;98281.56;5039396;28;20029;-70
2021/07/14 04:48:34;;;;;;;4.18;2.50;;;;;;;13.47;100.00;98292.94;5054833;28;20029;-67
2021/07/14 04:51:00;;;;;;;9.80;2.30;;;;;;;13.43;100.00;98275.44;5049783;28;20029;-67
2021/07/14 04:53:25;;;;;;;9.13;2.35;;;;;;;13.65;100.00;98311.88;5053370;28;20044;-70
2021/07/14 04:55:50;;;;;;;9.05;2.30;;;;;;;13.66;99.25;98294.47;5057360;28;20013;-70
2021/07/14 04:58:16;;;;;;;12.32;2.92;;;;;;;13.74;100.00;98287.88;5061317;28;20040;-71
2021/07/14 05:00:41;;;;;;;7.68;2.55;;;;;;;13.79;99.63;98288.00;5050702;28;20071;-69
2021/07/14 05:03:06;;;;;;;8.77;2.53;;;;;;;13.84;98.25;98281.84;5042259;28;20443;-72
2021/07/14 05:05:32;;;;;;;4.43;2.00;;;;;;;13.91;96.95;98283.38;5053488;28;20017;-69
2021/07/14 05:07:57;;;;;;;4.35;2.13;;;;;;;13.89;96.68;98268.38;5053277;28;20520;-74
2021/07/14 05:10:24;;;;;;;7.43;2.60;;;;;;;14.01;96.61;98269.16;5037109;28;20478;-71
2021/07/14 05:12:50;;;;;;;5.80;2.63;;;;;;;14.19;96.39;98287.22;5052716;28;20143;-79
2021/07/14 05:15:16;;;;;;;10.07;2.38;;;;;;;14.18;95.76;98272.81;5037555;28;20025;-72
2021/07/14 05:17:41;;;;;;;4.70;1.98;;;;;;;14.25;95.41;98269.94;5052829;28;20021;-74
2021/07/14 05:20:08;;;;;;;7.63;2.15;;;;;;;14.27;95.16;98267.00;5051660;28;20059;-76
2021/07/14 05:22:33;;;;;;;4.13;2.15;;;;;;;14.56;93.08;98285.03;5051112;28;20029;-69
2021/07/14 05:25:00;;;;;;;6.70;2.25;;;;;;;14.64;92.07;98287.38;5050759;28;20432;-77
2021/07/14 05:27:25;;;;;;;5.38;2.08;;;;;;;14.68;91.20;98274.94;5037674;28;20028;-72
2021/07/14 05:29:50;;;;;;;6.70;2.17;;;;;;;14.54;91.62;98270.84;5050039;28;20025;-73
2021/07/14 05:32:17;;;;;;;11.23;2.55;;;;;;;14.66;91.58;98287.13;5049601;28;20025;-74
2021/07/14 05:34:42;;;;;;;4.15;1.98;;;;;;;14.75;92.01;98285.69;5033988;28;20029;-77
2021/07/14 05:37:07;;;;;;;4.35;2.35;;;;;;;14.71;91.58;98264.63;5034737;28;20080;-74
2021/07/14 05:39:33;;;;;;;2.90;2.10;;;;;;;14.81;90.72;98264.81;5035393;28;20033;-71
2021/07/14 05:41:58;;;;;;;3.90;2.40;;;;;;;14.82;90.22;98280.91;5052731;28;20020;-74
2021/07/14 05:44:23;;;;;;;6.78;2.45;;;;;;;14.85;89.76;98285.84;5042565;28;22176;-71
2021/07/14 05:46:50;;;;;;;3.70;2.28;;;;;;;14.83;90.26;98266.25;5046694;28;20017;-71
2021/07/14 05:49:16;;;;;;;5.38;2.05;;;;;;;14.84;90.03;98286.94;5051913;28;20521;-71
2021/07/14 05:51:44;;;;;;;4.85;2.00;;;;;;;14.94;90.02;98299.13;5033324;28;20303;-72
2021/07/14 05:54:09;;;;;;;5.25;1.83;;;;;;;14.97;88.90;98302.16;5034418;28;20024;-72
2021/07/14 05:56:35;;;;;;;4.35;1.70;;;;;;;14.94;89.23;98308.09;5052528;28;20035;-71
2021/07/14 05:59:00;;;;;;;5.53;2.08;;;;;;;14.81;87.88;98276.53;5050867;28;20025;-75
2021/07/14 06:01:25;;;;;;;3.95;1.90;;;;;;;15.09;87.35;98313.00;5052935;28;20021;-76
2021/07/14 06:03:51;;;;;;;4.15;1.90;;;;;;;15.16;86.95;98307.41;5052998;28;20430;-69
2021/07/14 06:06:16;;;;;;;5.05;2.00;;;;;;;15.21;87.26;98302.03;5052975;28;20025;-70
2021/07/14 06:08:43;;;;;;;7.13;1.80;;;;;;;15.18;86.63;98311.53;5052336;28;20052;-71
2021/07/14 06:11:08;;;;;;;1.88;1.60;;;;;;;14.85;86.78;98249.63;5052233;28;20032;-71
2021/07/14 06:13:34;;;;;;;4.38;2.03;;;;;;;15.11;85.96;98297.22;5033800;28;20036;-70
2021/07/14 06:15:59;;;;;;;2.83;1.60;;;;;;;15.27;85.49;98291.00;5049391;28;20025;-73
2021/07/14 06:18:24;;;;;;;6.78;2.03;;;;;;;15.37;85.08;98301.22;5052278;28;20150;-69
2021/07/14 06:20:50;;;;;;;5.30;2.05;;;;;;;15.25;84.95;98282.25;5050705;28;20025;-73
2021/07/14 06:23:15;;;;;;;5.03;1.85;;;;;;;15.35;84.59;98300.63;5049716;28;20036;-74
2021/07/14 06:25:41;;;;;;;3.28;1.70;;;;;;;15.29;84.73;98280.66;5033185;28;20040;-75
2021/07/14 06:28:07;;;;;;;4.80;2.17;;;;;;;15.30;85.69;98289.66;5034111;28;20486;-75
2021/07/14 06:30:33;;;;;;;2.83;1.80;;;;;;;15.35;84.23;98295.19;5052830;28;20052;-76
2021/07/14 06:32:59;;;;;;;3.42;1.98;;;;;;;15.17;86.03;98265.44;5034890;28;20052;-77
2021/07/14 06:35:24;;;;;;;5.07;2.03;;;;;;;15.13;86.74;98282.28;5028487;28;20557;-77
2021/07/14 06:37:50;;;;;;;5.15;2.03;;;;;;;15.04;86.83;98291.94;5015553;28;20021;-68
2021/07/14 06:40:16;;;;;;;5.10;2.10;;;;;;;15.18;86.82;98305.25;5032208;28;20415;-74
2021/07/14 06:42:41;;;;;;;5.30;2.20;;;;;;;15.10;87.43;98304.59;5028186;28;20020;-70
2021/07/14 06:45:10;;;;;;;7.68;2.17;;;;;;;15.11;85.79;98286.34;5052092;28;20052;-72
2021/07/14 06:47:35;;;;;;;3.80;2.07;;;;;;;15.19;86.79;98309.63;5052126;28;20025;-76
2021/07/14 06:50:06;;;;;;;6.63;2.05;;;;;;;15.29;85.48;98304.38;5034679;28;20087;-73
2021/07/14 06:52:32;;;;;;;4.07;2.33;;;;;;;15.20;85.67;98287.59;5033913;28;20039;-72
2021/07/14 06:54:57;;;;;;;8.90;2.28;;;;;;;14.96;86.13;98265.13;5030598;28;20124;-73
2021/07/14 06:57:25;;;;;;;4.97;2.20;;;;;;;14.99;87.31;98297.31;5040016;28;20029;-73
2021/07/14 06:59:50;;;;;;;4.25;2.40;;;;;;;14.71;87.55;98251.03;5030535;28;20017;-73
2021/07/14 07:02:16;;;;;;;7.40;2.20;;;;;;;15.17;87.62;98306.31;5050909;28;20024;-73
2021/07/14 07:04:41;;;;;;;6.93;2.47;;;;;;;15.18;86.73;98299.81;5033930;28;20391;-73
2021/07/14 07:07:06;;;;;;;5.30;2.58;;;;;;;14.97;87.77;98268.66;5051870;28;20044;-73
2021/07/14 07:09:32;;;;;;;7.10;2.70;;;;;;;15.13;87.27;98297.81;5052144;28;20035;-73
2021/07/14 07:11:57;;;;;;;3.85;2.42;;;;;;;15.14;87.90;98294.00;5051656;28;20021;-73
2021/07/14 07:14:22;;;;;;;8.02;2.50;;;;;;;15.35;85.84;98306.09;5051608;28;20386;-73
2021/07/14 07:16:48;;;;;;;5.05;2.33;;;;;;;15.33;86.06;98294.63;5051048;28;20032;-70
2021/07/14 07:19:13;;;;;;;4.85;2.45;;;;;;;15.38;86.31;98294.72;5052914;28;20060;-77
2021/07/14 07:21:39;;;;;;;4.15;2.40;;;;;;;15.40;86.72;98295.28;5032536;28;20100;-70
2021/07/14 07:24:04;;;;;;;6.10;2.65;;;;;;;15.54;87.27;98310.25;5050527;28;20102;-70
2021/07/14 07:26:30;;;;;;;3.55;2.30;;;;;;;15.65;86.89;98322.16;5026260;28;20033;-69
2021/07/14 07:29:00;;;;;;;5.07;2.40;;;;;;;15.70;86.04;98324.16;5043163;28;20036;-70
2021/07/14 07:31:26;;;;;;;5.45;2.35;;;;;;;15.59;86.30;98312.25;5050800;28;20047;-74
2021/07/14 07:33:51;;;;;;;10.43;2.50;;;;;;;15.71;85.63;98321.19;5050996;28;20502;-72
2021/07/14 07:36:17;;;;;;;3.30;2.20;;;;;;;15.77;84.37;98331.13;5032905;28;20405;-72
2021/07/14 07:38:42;;;;;;;3.13;2.28;;;;;;;15.56;84.82;98329.06;5049086;28;20092;-72
2021/07/14 07:41:09;;;;;;;7.72;2.13;;;;;;;15.56;85.34;98316.28;5030337;28;20021;-71
2021/07/14 07:43:34;;;;;;;3.50;2.55;;;;;;;15.38;86.59;98299.31;5040443;28;20036;-70
2021/07/14 07:46:00;;;;;;;4.05;2.50;;;;;;;15.42;85.83;98312.22;5050908;28;20025;-70
2021/07/14 07:48:26;;;;;;;10.40;2.85;;;;;;;15.38;86.06;98300.19;5033884;28;20052;-72
2021/07/14 07:50:52;;;;;;;3.67;2.35;;;;;;;15.37;85.96;98297.69;5035072;28;20375;-73
2021/07/14 07:53:19;;;;;;;4.25;2.38;;;;;;;15.58;86.09;98316.03;5034242;28;20025;-72
2021/07/14 07:55:49;;;;;;;5.45;2.60;;;;;;;15.51;86.50;98315.34;5031556;28;20033;-72
2021/07/14 07:58:14;;;;;;;5.25;2.60;;;;;;;15.39;87.04;98312.72;5043824;28;20094;-71
2021/07/14 08:00:40;;;;;;;2.90;2.20;;;;;;;15.47;87.01;98338.75;5035646;28;20025;-70
2021/07/14 08:03:05;;;;;;;3.67;2.20;;;;;;;15.46;87.28;98340.66;5051307;28;20021;-71
2021/07/14 08:05:30;;;;;;;4.75;2.58;;;;;;;15.39;87.25;98341.88;5051289;28;20044;-70
2021/07/14 08:07:56;;;;;;;5.57;2.65;;;;;;;15.27;86.92;98334.59;5051162;28;20106;-70
2021/07/14 08:10:21;;;;;;;8.93;2.70;;;;;;;15.24;88.38;98342.44;5050697;28;20381;-70
2021/07/14 08:12:47;;;;;;;4.18;2.50;;;;;;;15.30;87.03;98336.84;5053208;28;20637;-69
2021/07/14 08:15:12;;;;;;;5.10;3.67;;;;;;;15.17;87.75;98341.75;5054447;28;20394;-70
2021/07/14 08:17:39;;;;;;;5.97;2.90;;;;;;;15.20;88.33;98331.19;5054132;28;20028;-70
2021/07/14 08:20:08;;;;;;;5.43;2.78;;;;;;;15.16;88.50;98323.75;5037129;28;20044;-71
2021/07/14 08:22:34;;;;;;;;;;;;;;;15.16;89.46;98335.47;5069085;22;20033;-71
2021/07/14 08:24:59;;;;;;;5.80;2.60;;;;;;;15.10;89.65;98322.84;5054644;28;19943;-73
2021/07/14 08:27:25;;;;;;;14.75;3.25;;;;;;;15.02;91.90;98342.31;5054803;28;20056;-73
2021/07/14 08:29:58;;;;;;;5.57;3.05;;;;;;;14.86;92.44;98325.66;5051493;28;20033;-73
2021/07/14 08:32:24;;;;;;;4.80;2.95;;;;;;;15.03;93.28;98346.66;5053804;28;20517;-76
2021/07/14 08:34:49;;;;;;;4.68;2.58;;;;;;;15.10;92.85;98352.81;5036612;28;20209;-74
2021/07/14 08:37:15;;;;;;;5.13;2.65;;;;;;;15.25;91.45;98355.00;5038155;28;20519;-73
2021/07/14 08:39:40;;;;;;;5.95;2.75;;;;;;;15.22;91.49;98369.09;5054344;28;20029;-74
2021/07/14 08:42:05;;;;;;;6.35;2.80;;;;;;;15.11;92.49;98368.91;5054264;28;20036;-73
2021/07/14 08:44:34;;;;;;;6.05;3.10;;;;;;;15.06;93.27;98374.28;5048517;28;20044;-72
2021/07/14 08:47:00;;;;;;;5.60;3.40;;;;;;;15.03;93.83;98372.00;5034442;28;20163;-72
2021/07/14 08:49:26;;;;;;;7.05;3.65;;;;;;;14.90;94.18;98372.28;5035124;28;20090;-75
2021/07/14 08:51:52;;;;;;;10.63;3.40;;;;;;;14.88;95.07;98368.97;5031544;28;20025;-75
2021/07/14 08:54:18;;;;;;;8.65;3.22;;;;;;;14.90;95.43;98366.84;5053117;28;20102;-75
2021/07/14 08:56:43;;;;;;;5.43;3.30;;;;;;;14.91;95.58;98360.34;5036439;28;20082;-73
2021/07/14 08:59:09;;;;;;;8.52;3.50;;;;;;;14.98;95.79;98371.91;5054003;28;20029;-73
2021/07/14 09:01:34;;;;;;;7.38;3.00;;;;;;;15.05;95.14;98369.88;5053347;28;20536;-71
2021/07/14 09:04:00;;;;;;;9.93;3.30;;;;;;;15.05;94.83;98363.59;5046729;28;20039;-73
2021/07/14 09:06:25;;;;;;;9.98;3.50;;;;;;;15.20;94.04;98373.97;5029155;28;20033;-77
2021/07/14 09:08:51;;;;;;;6.05;2.90;;;;;;;15.23;93.09;98374.31;5052426;28;20024;-77
2021/07/14 09:11:18;;;;;;;5.85;3.00;;;;;;;15.26;94.37;98379.25;5035867;28;20041;-76
2021/07/14 09:13:43;;;;;;;6.00;3.20;;;;;;;15.20;92.74;98353.00;5036124;28;20017;-76
2021/07/14 09:16:08;;;;;;;5.40;3.25;;;;;;;15.49;93.15;98378.31;5025130;28;20025;-75
2021/07/14 09:18:34;;;;;;;7.38;3.10;;;;;;;15.41;90.93;98375.19;5036378;28;20059;-74
2021/07/14 09:21:01;;;;;;;5.03;3.00;;;;;;;15.42;92.07;98376.81;5047300;28;20025;-76
2021/07/14 09:23:31;;;;;;;4.65;2.80;;;;;;;15.39;92.35;98378.13;5050220;28;20064;-76
2021/07/14 09:26:00;;;;;;;5.43;3.38;;;;;;;15.48;92.36;98384.88;5024533;28;20056;-76
2021/07/14 09:28:28;;;;;;;7.93;3.80;;;;;;;15.44;93.06;98380.97;5034390;28;20512;-75
2021/07/14 09:30:59;;;;;;;8.73;3.20;;;;;;;15.56;93.14;98383.59;5022130;28;20276;-76
2021/07/14 09:33:25;;;;;;;4.68;3.65;;;;;;;15.55;92.46;98381.97;5043601;28;20022;-75
2021/07/14 09:35:52;;;;;;;5.78;3.70;;;;;;;15.61;92.59;98380.16;5035180;28;20032;-73
2021/07/14 09:38:26;;;;;;;6.45;3.55;;;;;;;15.83;92.13;98378.38;5033757;28;20021;-75
2021/07/14 09:40:54;;;;;;;6.43;3.63;;;;;;;15.86;91.65;98372.44;5020512;28;20021;-73
2021/07/14 09:43:23;;;;;;;6.13;4.03;;;;;;;16.00;91.87;98376.47;5053666;28;20028;-78
2021/07/14 09:45:53;;;;;;;6.32;3.22;;;;;;;15.86;89.75;98377.06;5035115;28;20051;-76
2021/07/14 09:48:25;;;;;;;6.78;3.30;;;;;;;15.84;91.41;98371.03;5053060;28;20846;-76
2021/07/14 09:50:58;;;;;;;7.63;3.60;;;;;;;16.03;90.77;98386.06;5035253;28;20025;-75
2021/07/14 09:53:27;;;;;;;7.50;3.13;;;;;;;16.25;89.28;98372.47;5051201;28;20514;-70
2021/07/14 09:55:55;;;;;;;5.40;3.58;;;;;;;16.27;89.40;98377.69;5052899;28;20086;-75
2021/07/14 09:58:27;;;;;;;4.18;2.92;;;;;;;16.63;87.88;98370.81;5037845;28;20097;-74
2021/07/14 10:01:04;;;;;;;6.25;2.85;;;;;;;16.81;84.22;98375.16;5047556;28;20048;-76
2021/07/14 10:03:36;;;;;;;6.47;3.00;;;;;;;17.05;83.89;98376.53;5035065;28;20111;-75
2021/07/14 10:06:08;;;;;;;4.88;3.25;;;;;;;17.02;83.31;98378.97;5053198;28;20025;-73
2021/07/14 10:08:35;;;;;;;6.45;3.00;;;;;;;17.44;83.45;98370.94;5047888;28;20273;-74
2021/07/14 10:11:21;;;;;;;7.10;3.00;;;;;;;17.51;80.38;98366.09;5053182;28;20032;-75
2021/07/14 10:14:07;;;;;;;6.78;2.42;;;;;;;18.02;78.67;98373.13;5053450;28;20534;-73
2021/07/14 10:16:41;;;;;;;3.95;2.70;;;;;;;18.24;78.16;98378.50;5047266;28;20075;-75
2021/07/14 10:19:16;;;;;;;3.67;2.35;;;;;;;18.66;77.27;98374.91;5034032;28;20375;-72
2021/07/14 10:21:46;;;;;;;2.72;2.00;;;;;;;18.72;76.05;98373.81;5049944;28;20494;-70
2021/07/14 10:24:16;;;;;;;5.25;2.35;;;;;;;18.79;74.25;98374.44;5050873;28;20036;-70
2021/07/14 10:26:44;;;;;;;5.40;2.40;;;;;;;19.20;73.69;98372.69;5052413;28;20033;-71
2021/07/14 10:29:11;;;;;;;5.70;1.98;;;;;;;19.88;72.82;98388.16;5051661;28;20036;-71
2021/07/14 10:31:37;;;;;;;3.45;2.10;;;;;;;20.64;69.19;98387.25;5053044;28;20029;-71
2021/07/14 10:34:08;;;;;;;4.30;2.20;;;;;;;20.47;68.99;98381.25;5050794;28;20040;-70
2021/07/14 10:36:37;;;;;;;5.38;2.25;;;;;;;20.90;67.19;98400.94;5051226;28;20016;-71
2021/07/14 10:39:10;;;;;;;4.70;2.35;;;;;;;20.97;67.56;98404.22;5048397;28;20029;-71
2021/07/14 10:41:37;;;;;;;5.53;2.03;;;;;;;20.73;67.55;98412.25;5046061;28;20021;-71
2021/07/14 10:44:05;;;;;;;2.40;1.90;;;;;;;20.64;67.56;98409.25;5049194;28;20512;-70
2021/07/14 10:46:31;;;;;;;3.80;2.08;;;;;;;20.11;69.64;98404.06;5045166;28;20037;-70
2021/07/14 10:49:00;;;;;;;5.22;2.22;;;;;;;19.76;69.47;98418.63;5050688;28;20033;-70
2021/07/14 10:51:27;;;;;;;5.35;2.47;;;;;;;20.10;69.26;98415.34;5050768;28;20797;-70
2021/07/14 10:53:57;;;;;;;6.15;2.40;;;;;;;20.25;66.40;98429.09;5047949;28;20059;-71
2021/07/14 10:56:24;;;;;;;4.53;2.40;;;;;;;20.34;66.58;98421.91;5049266;28;20017;-70
2021/07/14 10:58:51;;;;;;;3.33;2.20;;;;;;;20.48;66.58;98416.66;5050489;28;20029;-71
2021/07/14 11:01:39;;;;;;;4.03;2.30;;;;;;;20.98;65.00;98409.41;5050341;28;20108;-72
2021/07/14 11:04:04;;;;;;;4.00;2.35;;;;;;;21.49;62.82;98402.88;5028822;28;20178;-72
2021/07/14 11:06:30;;;;;;;4.22;2.00;;;;;;;21.69;63.74;98412.09;5048470;28;20561;-71
2021/07/14 11:08:56;;;;;;;3.83;2.20;;;;;;;22.24;61.78;98410.91;5047293;28;20058;-72
2021/07/14 11:11:23;;;;;;;5.45;1.92;;;;;;;23.20;57.91;98407.38;5048042;28;20029;-72
2021/07/14 11:14:05;;;;;;;4.07;2.10;;;;;;;23.57;55.82;98408.53;5048909;28;20341;-71
2021/07/14 11:16:38;;;;;;;4.07;2.10;;;;;;;23.11;59.55;98393.44;5035020;28;20025;-72
2021/07/14 11:19:05;;;;;;;5.07;2.03;;;;;;;23.47;60.72;98394.88;5049440;28;20078;-72
2021/07/14 11:21:46;;;;;;;6.95;2.00;;;;;;;23.47;55.94;98389.34;5050635;28;20496;-74
2021/07/14 11:24:11;;;;;;;3.85;1.52;;;;;;;24.51;53.93;98391.03;5050211;28;20067;-72
2021/07/14 11:26:37;;;;;;;3.30;1.85;;;;;;;24.88;50.98;98395.56;5051521;28;20112;-72
2021/07/14 11:29:14;;;;;;;3.20;1.73;;;;;;;25.29;51.58;98389.22;5051635;28;20037;-71
2021/07/14 11:31:42;;;;;;;2.92;1.42;;;;;;;25.36;51.17;98392.38;5047487;28;20040;-73
2021/07/14 11:34:30;;;;;;;3.20;1.85;;;;;;;25.76;50.71;98372.38;5047410;28;20053;-73
2021/07/14 11:36:55;;;;;;;4.20;1.80;;;;;;;26.37;47.61;98367.25;5048025;28;20025;-74
2021/07/14 11:39:29;;;;;;;3.95;1.90;;;;;;;25.54;48.35;98373.97;5029478;28;20024;-67
2021/07/14 11:42:15;;;;;;;2.75;1.35;;;;;;;26.60;48.44;98370.84;5047393;28;20063;-67